Terminal Aerodrome Forecast
Issued by NWS Wilmington, OH

Current Version | Previous Version | Text Only | Print | Product List | Glossary On
Versions: 1 2 3 4 5 6 7 8 9 10 11 12 13 14 15 16 17 18 19 20 21 22 23 24 25 26 27 28 29
000 FTUS41 KILN 241100 TAFCVG TAF KCVG 241133Z 2412/2518 VRB03KT P6SM SCT200 TEMPO 2412/2413 5SM BR FM241600 25005KT P6SM FEW150 FM242100 25006KT P6SM SCT050 FM250600 21006KT P6SM BKN035 FM251500 23010KT P6SM SCT040=

USA.gov is the U.S. government's official web portal to all federal, state and local government web resources and services.